sensor_id;sensor_type;location;lat;lon;timestamp;pressure;altitude;pressure_sealevel;temperature;humidity
57885;BME280;43703;51.060;-0.086;2022-07-15T00:01:52;101048.59;;;15.29;54.29
57885;BME280;43703;51.060;-0.086;2022-07-15T00:04:17;101050.48;;;15.54;54.62
57885;BME280;43703;51.060;-0.086;2022-07-15T00:06:42;101054.79;;;15.45;54.32
57885;BME280;43703;51.060;-0.086;2022-07-15T00:09:07;101066.76;;;15.73;54.15
57885;BME280;43703;51.060;-0.086;2022-07-15T00:11:32;101067.15;;;15.96;54.36
57885;BME280;43703;51.060;-0.086;2022-07-15T00:13:58;101062.89;;;15.61;53.41
57885;BME280;43703;51.060;-0.086;2022-07-15T00:16:22;101050.11;;;15.56;54.18
57885;BME280;43703;51.060;-0.086;2022-07-15T00:18:47;101045.58;;;15.68;54.31
57885;BME280;43703;51.060;-0.086;2022-07-15T00:21:13;101046.28;;;15.30;54.81
57885;BME280;43703;51.060;-0.086;2022-07-15T00:23:37;101051.45;;;15.50;55.34
57885;BME280;43703;51.060;-0.086;2022-07-15T00:26:02;101052.41;;;15.36;55.27
57885;BME280;43703;51.060;-0.086;2022-07-15T00:28:27;101057.78;;;15.18;56.19
57885;BME280;43703;51.060;-0.086;2022-07-15T00:30:52;101056.37;;;15.64;55.68
57885;BME280;43703;51.060;-0.086;2022-07-15T00:33:18;101056.67;;;15.24;56.56
57885;BME280;43703;51.060;-0.086;2022-07-15T00:35:42;101054.10;;;15.08;55.76
57885;BME280;43703;51.060;-0.086;2022-07-15T00:38:08;101050.92;;;15.11;55.81
57885;BME280;43703;51.060;-0.086;2022-07-15T00:40:39;101049.44;;;15.35;55.78
57885;BME280;43703;51.060;-0.086;2022-07-15T00:42:58;101047.58;;;15.46;55.75
57885;BME280;43703;51.060;-0.086;2022-07-15T00:45:24;101043.68;;;15.07;55.90
57885;BME280;43703;51.060;-0.086;2022-07-15T00:47:50;101044.99;;;15.19;55.97
57885;BME280;43703;51.060;-0.086;2022-07-15T00:50:13;101045.16;;;15.07;57.02
57885;BME280;43703;51.060;-0.086;2022-07-15T00:52:43;101047.06;;;15.02;57.39
57885;BME280;43703;51.060;-0.086;2022-07-15T00:55:10;101042.66;;;15.37;57.14
57885;BME280;43703;51.060;-0.086;2022-07-15T00:57:29;101042.32;;;15.18;57.34
57885;BME280;43703;51.060;-0.086;2022-07-15T00:59:59;101039.61;;;15.09;56.77
57885;BME280;43703;51.060;-0.086;2022-07-15T01:02:23;101041.15;;;14.93;56.91
57885;BME280;43703;51.060;-0.086;2022-07-15T01:04:48;101041.52;;;15.21;56.85
57885;BME280;43703;51.060;-0.086;2022-07-15T01:07:08;101045.61;;;15.26;57.33
57885;BME280;43703;51.060;-0.086;2022-07-15T01:09:38;101044.24;;;14.63;57.74
57885;BME280;43703;51.060;-0.086;2022-07-15T01:11:58;101046.63;;;14.88;57.88
57885;BME280;43703;51.060;-0.086;2022-07-15T01:14:28;101046.62;;;15.09;57.84
57885;BME280;43703;51.060;-0.086;2022-07-15T01:16:49;101049.21;;;14.86;58.16
57885;BME280;43703;51.060;-0.086;2022-07-15T01:19:16;101048.85;;;14.78;58.27
57885;BME280;43703;51.060;-0.086;2022-07-15T01:21:39;101048.16;;;14.80;58.35
57885;BME280;43703;51.060;-0.086;2022-07-15T01:24:09;101049.93;;;14.87;58.01
57885;BME280;43703;51.060;-0.086;2022-07-15T01:26:34;101046.97;;;14.80;58.03
57885;BME280;43703;51.060;-0.086;2022-07-15T01:28:59;101047.67;;;14.56;58.17
57885;BME280;43703;51.060;-0.086;2022-07-15T01:31:24;101046.93;;;14.62;57.27
57885;BME280;43703;51.060;-0.086;2022-07-15T01:33:46;101049.64;;;14.58;57.80
57885;BME280;43703;51.060;-0.086;2022-07-15T01:36:09;101053.80;;;14.54;57.94
57885;BME280;43703;51.060;-0.086;2022-07-15T01:38:39;101052.99;;;14.70;58.07
57885;BME280;43703;51.060;-0.086;2022-07-15T01:41:05;101048.85;;;14.77;57.80
57885;BME280;43703;51.060;-0.086;2022-07-15T01:43:30;101049.83;;;15.05;57.32
57885;BME280;43703;51.060;-0.086;2022-07-15T01:45:50;101050.51;;;15.01;56.86
57885;BME280;43703;51.060;-0.086;2022-07-15T01:48:16;101052.68;;;14.94;57.16
57885;BME280;43703;51.060;-0.086;2022-07-15T01:50:41;101048.64;;;14.90;57.37
57885;BME280;43703;51.060;-0.086;2022-07-15T01:53:06;101049.87;;;15.10;56.87
57885;BME280;43703;51.060;-0.086;2022-07-15T01:55:32;101049.50;;;15.20;57.37
57885;BME280;43703;51.060;-0.086;2022-07-15T01:57:56;101048.30;;;14.56;57.78
57885;BME280;43703;51.060;-0.086;2022-07-15T02:00:22;101053.09;;;14.91;57.41
57885;BME280;43703;51.060;-0.086;2022-07-15T02:02:51;101051.73;;;14.79;57.67
57885;BME280;43703;51.060;-0.086;2022-07-15T02:05:11;101055.44;;;14.73;57.40
57885;BME280;43703;51.060;-0.086;2022-07-15T02:07:36;101054.63;;;14.77;57.48
57885;BME280;43703;51.060;-0.086;2022-07-15T02:10:02;101052.58;;;14.73;57.53
57885;BME280;43703;51.060;-0.086;2022-07-15T02:12:26;101050.35;;;14.67;56.88
57885;BME280;43703;51.060;-0.086;2022-07-15T02:14:51;101044.06;;;15.06;56.93
57885;BME280;43703;51.060;-0.086;2022-07-15T02:17:18;101044.49;;;14.63;57.57
57885;BME280;43703;51.060;-0.086;2022-07-15T02:19:42;101040.65;;;14.73;57.66
57885;BME280;43703;51.060;-0.086;2022-07-15T02:22:07;101045.67;;;14.53;57.45
57885;BME280;43703;51.060;-0.086;2022-07-15T02:24:32;101048.26;;;14.54;57.46
57885;BME280;43703;51.060;-0.086;2022-07-15T02:26:57;101049.95;;;14.44;57.74
57885;BME280;43703;51.060;-0.086;2022-07-15T02:29:22;101049.10;;;14.31;57.78
57885;BME280;43703;51.060;-0.086;2022-07-15T02:31:47;101053.29;;;14.78;57.67
57885;BME280;43703;51.060;-0.086;2022-07-15T02:34:13;101050.63;;;14.43;58.39
57885;BME280;43703;51.060;-0.086;2022-07-15T02:36:37;101045.44;;;14.13;58.45
57885;BME280;43703;51.060;-0.086;2022-07-15T02:39:02;101043.38;;;14.30;58.27
57885;BME280;43703;51.060;-0.086;2022-07-15T02:41:27;101038.37;;;13.95;58.31
57885;BME280;43703;51.060;-0.086;2022-07-15T02:43:54;101040.53;;;14.50;56.98
57885;BME280;43703;51.060;-0.086;2022-07-15T02:46:17;101041.42;;;14.38;56.97
57885;BME280;43703;51.060;-0.086;2022-07-15T02:48:42;101042.86;;;13.95;57.11
57885;BME280;43703;51.060;-0.086;2022-07-15T02:51:08;101043.32;;;14.24;56.75
57885;BME280;43703;51.060;-0.086;2022-07-15T02:53:32;101046.01;;;14.22;56.57
57885;BME280;43703;51.060;-0.086;2022-07-15T02:55:59;101048.90;;;13.79;57.00
57885;BME280;43703;51.060;-0.086;2022-07-15T02:58:23;101049.81;;;14.09;56.34
57885;BME280;43703;51.060;-0.086;2022-07-15T03:00:48;101049.37;;;14.10;55.73
57885;BME280;43703;51.060;-0.086;2022-07-15T03:03:13;101048.23;;;13.98;56.07
57885;BME280;43703;51.060;-0.086;2022-07-15T03:05:38;101046.35;;;13.98;55.52
57885;BME280;43703;51.060;-0.086;2022-07-15T03:08:08;101045.46;;;13.76;56.12
57885;BME280;43703;51.060;-0.086;2022-07-15T03:10:33;101046.14;;;13.64;55.99
57885;BME280;43703;51.060;-0.086;2022-07-15T03:12:53;101045.94;;;13.55;55.14
57885;BME280;43703;51.060;-0.086;2022-07-15T03:15:18;101047.98;;;13.85;55.69
57885;BME280;43703;51.060;-0.086;2022-07-15T03:17:43;101046.79;;;13.66;55.22
57885;BME280;43703;51.060;-0.086;2022-07-15T03:20:13;101046.63;;;13.54;55.82
57885;BME280;43703;51.060;-0.086;2022-07-15T03:22:38;101045.29;;;13.63;55.08
57885;BME280;43703;51.060;-0.086;2022-07-15T03:25:04;101044.24;;;13.60;55.28
57885;BME280;43703;51.060;-0.086;2022-07-15T03:27:24;101045.58;;;13.46;55.08
57885;BME280;43703;51.060;-0.086;2022-07-15T03:29:53;101048.38;;;13.44;54.96
57885;BME280;43703;51.060;-0.086;2022-07-15T03:32:18;101050.75;;;13.61;54.87
57885;BME280;43703;51.060;-0.086;2022-07-15T03:34:43;101052.06;;;13.46;54.67
57885;BME280;43703;51.060;-0.086;2022-07-15T03:37:09;101056.72;;;13.20;55.57
57885;BME280;43703;51.060;-0.086;2022-07-15T03:39:33;101057.07;;;13.29;54.92
57885;BME280;43703;51.060;-0.086;2022-07-15T03:41:57;101058.21;;;13.55;54.71
57885;BME280;43703;51.060;-0.086;2022-07-15T03:44:20;101057.23;;;13.00;55.70
57885;BME280;43703;51.060;-0.086;2022-07-15T03:46:49;101058.82;;;13.27;56.29
57885;BME280;43703;51.060;-0.086;2022-07-15T03:49:10;101064.80;;;13.20;54.87
57885;BME280;43703;51.060;-0.086;2022-07-15T03:51:39;101060.06;;;13.32;54.04
57885;BME280;43703;51.060;-0.086;2022-07-15T03:54:04;101055.66;;;13.53;54.04
57885;BME280;43703;51.060;-0.086;2022-07-15T03:56:24;101056.66;;;13.00;54.51
57885;BME280;43703;51.060;-0.086;2022-07-15T03:58:54;101057.80;;;13.16;53.94
57885;BME280;43703;51.060;-0.086;2022-07-15T04:01:15;101053.81;;;12.95;54.76
57885;BME280;43703;51.060;-0.086;2022-07-15T04:03:44;101054.12;;;13.27;54.73
57885;BME280;43703;51.060;-0.086;2022-07-15T04:06:09;101053.58;;;13.41;54.24
57885;BME280;43703;51.060;-0.086;2022-07-15T04:08:34;101052.64;;;13.09;53.88
57885;BME280;43703;51.060;-0.086;2022-07-15T04:10:59;101052.80;;;13.06;54.18
57885;BME280;43703;51.060;-0.086;2022-07-15T04:13:24;101051.77;;;13.16;54.48
57885;BME280;43703;51.060;-0.086;2022-07-15T04:15:44;101046.63;;;13.06;54.67
57885;BME280;43703;51.060;-0.086;2022-07-15T04:18:14;101046.60;;;13.04;55.30
57885;BME280;43703;51.060;-0.086;2022-07-15T04:20:39;101047.08;;;13.04;54.86
57885;BME280;43703;51.060;-0.086;2022-07-15T04:23:00;101044.97;;;13.22;54.02
57885;BME280;43703;51.060;-0.086;2022-07-15T04:25:29;101044.56;;;13.33;53.70
57885;BME280;43703;51.060;-0.086;2022-07-15T04:27:52;101045.46;;;13.42;52.78
57885;BME280;43703;51.060;-0.086;2022-07-15T04:30:19;101048.44;;;13.38;53.29
57885;BME280;43703;51.060;-0.086;2022-07-15T04:32:44;101042.46;;;13.28;53.01
57885;BME280;43703;51.060;-0.086;2022-07-15T04:35:10;101040.08;;;13.45;53.16
57885;BME280;43703;51.060;-0.086;2022-07-15T04:37:30;101044.54;;;13.69;53.62
57885;BME280;43703;51.060;-0.086;2022-07-15T04:40:00;101045.95;;;13.71;51.74
57885;BME280;43703;51.060;-0.086;2022-07-15T04:42:21;101043.90;;;13.58;53.07
57885;BME280;43703;51.060;-0.086;2022-07-15T04:44:50;101045.14;;;13.75;53.32
57885;BME280;43703;51.060;-0.086;2022-07-15T04:47:13;101048.19;;;13.93;53.42
57885;BME280;43703;51.060;-0.086;2022-07-15T04:49:40;101049.48;;;13.88;53.57
57885;BME280;43703;51.060;-0.086;2022-07-15T04:52:05;101050.30;;;13.97;52.92
57885;BME280;43703;51.060;-0.086;2022-07-15T04:54:30;101045.11;;;13.85;51.61
57885;BME280;43703;51.060;-0.086;2022-07-15T04:56:51;101045.11;;;13.94;53.22
57885;BME280;43703;51.060;-0.086;2022-07-15T04:59:15;101046.45;;;14.11;53.05
57885;BME280;43703;51.060;-0.086;2022-07-15T05:01:40;101046.00;;;14.09;53.44
57885;BME280;43703;51.060;-0.086;2022-07-15T05:04:10;101050.36;;;13.78;52.50
57885;BME280;43703;51.060;-0.086;2022-07-15T05:06:32;101046.16;;;14.33;52.33
57885;BME280;43703;51.060;-0.086;2022-07-15T05:08:56;101044.86;;;14.33;52.62
57885;BME280;43703;51.060;-0.086;2022-07-15T05:11:22;101048.14;;;14.52;53.10
57885;BME280;43703;51.060;-0.086;2022-07-15T05:13:47;101049.99;;;14.36;52.78
57885;BME280;43703;51.060;-0.086;2022-07-15T05:16:11;101050.51;;;14.42;52.78
57885;BME280;43703;51.060;-0.086;2022-07-15T05:18:36;101049.65;;;14.36;52.80
57885;BME280;43703;51.060;-0.086;2022-07-15T05:21:02;101049.84;;;14.47;52.47
57885;BME280;43703;51.060;-0.086;2022-07-15T05:23:27;101048.27;;;14.27;52.60
57885;BME280;43703;51.060;-0.086;2022-07-15T05:25:50;101050.72;;;14.63;52.33
57885;BME280;43703;51.060;-0.086;2022-07-15T05:28:16;101049.41;;;14.42;52.51
57885;BME280;43703;51.060;-0.086;2022-07-15T05:30:41;101050.86;;;14.39;53.03
57885;BME280;43703;51.060;-0.086;2022-07-15T05:33:06;101054.99;;;14.92;51.79
57885;BME280;43703;51.060;-0.086;2022-07-15T05:35:32;101055.61;;;14.54;52.84
57885;BME280;43703;51.060;-0.086;2022-07-15T05:37:56;101053.37;;;14.68;52.04
57885;BME280;43703;51.060;-0.086;2022-07-15T05:40:21;101050.33;;;14.84;52.67
57885;BME280;43703;51.060;-0.086;2022-07-15T05:42:48;101055.15;;;14.62;52.33
57885;BME280;43703;51.060;-0.086;2022-07-15T05:45:11;101057.77;;;14.95;52.04
57885;BME280;43703;51.060;-0.086;2022-07-15T05:47:37;101059.90;;;15.44;52.23
57885;BME280;43703;51.060;-0.086;2022-07-15T05:50:02;101060.79;;;15.55;53.31
57885;BME280;43703;51.060;-0.086;2022-07-15T05:52:27;101064.53;;;15.42;52.37
57885;BME280;43703;51.060;-0.086;2022-07-15T05:54:52;101067.21;;;15.84;52.76
57885;BME280;43703;51.060;-0.086;2022-07-15T05:57:17;101066.64;;;15.80;51.15
57885;BME280;43703;51.060;-0.086;2022-07-15T05:59:41;101071.38;;;16.09;52.19
57885;BME280;43703;51.060;-0.086;2022-07-15T06:02:12;101074.38;;;16.53;52.15
57885;BME280;43703;51.060;-0.086;2022-07-15T06:04:32;101076.10;;;16.09;51.94
57885;BME280;43703;51.060;-0.086;2022-07-15T06:06:57;101079.73;;;16.44;51.84
57885;BME280;43703;51.060;-0.086;2022-07-15T06:09:22;101076.88;;;16.46;51.72
57885;BME280;43703;51.060;-0.086;2022-07-15T06:11:47;101081.76;;;16.58;49.47
57885;BME280;43703;51.060;-0.086;2022-07-15T06:14:12;101081.71;;;16.66;48.26
57885;BME280;43703;51.060;-0.086;2022-07-15T06:16:39;101078.54;;;16.65;48.17
57885;BME280;43703;51.060;-0.086;2022-07-15T06:19:02;101080.50;;;17.45;47.90
57885;BME280;43703;51.060;-0.086;2022-07-15T06:21:27;101082.43;;;17.64;47.56
57885;BME280;43703;51.060;-0.086;2022-07-15T06:23:53;101083.22;;;18.22;45.38
57885;BME280;43703;51.060;-0.086;2022-07-15T06:26:17;101081.76;;;18.99;46.45
57885;BME280;43703;51.060;-0.086;2022-07-15T06:28:42;101082.31;;;20.15;44.02
57885;BME280;43703;51.060;-0.086;2022-07-15T06:31:08;101082.77;;;20.17;43.51
57885;BME280;43703;51.060;-0.086;2022-07-15T06:33:33;101085.47;;;20.42;42.31
57885;BME280;43703;51.060;-0.086;2022-07-15T06:36:04;101087.96;;;21.94;42.21
57885;BME280;43703;51.060;-0.086;2022-07-15T06:38:32;101085.32;;;22.57;37.34
57885;BME280;43703;51.060;-0.086;2022-07-15T06:40:51;101087.23;;;23.20;39.66
57885;BME280;43703;51.060;-0.086;2022-07-15T06:43:17;101089.88;;;22.80;36.88
57885;BME280;43703;51.060;-0.086;2022-07-15T06:45:42;101092.15;;;23.49;35.30
57885;BME280;43703;51.060;-0.086;2022-07-15T06:48:08;101086.15;;;24.41;34.93
57885;BME280;43703;51.060;-0.086;2022-07-15T06:50:39;101085.40;;;23.65;33.54
57885;BME280;43703;51.060;-0.086;2022-07-15T06:53:04;101089.25;;;25.52;38.35
57885;BME280;43703;51.060;-0.086;2022-07-15T06:55:27;101091.63;;;25.37;35.86
57885;BME280;43703;51.060;-0.086;2022-07-15T06:57:51;101091.23;;;25.52;33.27
57885;BME280;43703;51.060;-0.086;2022-07-15T07:00:18;101087.91;;;25.39;35.64
57885;BME280;43703;51.060;-0.086;2022-07-15T07:02:43;101084.53;;;24.97;29.05
57885;BME280;43703;51.060;-0.086;2022-07-15T07:05:14;101081.24;;;22.62;34.78
57885;BME280;43703;51.060;-0.086;2022-07-15T07:07:36;101076.85;;;23.65;38.85
57885;BME280;43703;51.060;-0.086;2022-07-15T07:10:01;101083.33;;;23.00;34.51
57885;BME280;43703;51.060;-0.086;2022-07-15T07:12:27;101084.24;;;25.31;32.61
57885;BME280;43703;51.060;-0.086;2022-07-15T07:14:52;101081.13;;;24.39;35.77
57885;BME280;43703;51.060;-0.086;2022-07-15T07:17:23;101077.03;;;25.69;35.09
57885;BME280;43703;51.060;-0.086;2022-07-15T07:19:49;101078.71;;;25.57;31.46
57885;BME280;43703;51.060;-0.086;2022-07-15T07:22:12;101080.15;;;26.27;33.90
57885;BME280;43703;51.060;-0.086;2022-07-15T07:24:37;101080.18;;;25.05;35.37
57885;BME280;43703;51.060;-0.086;2022-07-15T07:27:02;101080.17;;;26.99;32.73
57885;BME280;43703;51.060;-0.086;2022-07-15T07:29:27;101075.80;;;23.64;32.78
57885;BME280;43703;51.060;-0.086;2022-07-15T07:31:58;101075.56;;;23.80;35.53
57885;BME280;43703;51.060;-0.086;2022-07-15T07:34:24;101075.05;;;21.65;36.15
57885;BME280;43703;51.060;-0.086;2022-07-15T07:36:50;101077.04;;;22.13;39.46
57885;BME280;43703;51.060;-0.086;2022-07-15T07:39:13;101080.75;;;21.69;36.24
57885;BME280;43703;51.060;-0.086;2022-07-15T07:41:37;101074.71;;;23.54;37.62
57885;BME280;43703;51.060;-0.086;2022-07-15T07:44:03;101075.37;;;23.85;33.74
57885;BME280;43703;51.060;-0.086;2022-07-15T07:46:29;101079.24;;;24.28;35.25
57885;BME280;43703;51.060;-0.086;2022-07-15T07:48:59;101076.53;;;22.00;38.49
57885;BME280;43703;51.060;-0.086;2022-07-15T07:51:25;101069.18;;;22.17;38.99
57885;BME280;43703;51.060;-0.086;2022-07-15T07:53:51;101067.32;;;20.60;37.21
57885;BME280;43703;51.060;-0.086;2022-07-15T07:56:13;101071.97;;;21.44;41.57
57885;BME280;43703;51.060;-0.086;2022-07-15T07:58:38;101072.23;;;21.74;38.18
57885;BME280;43703;51.060;-0.086;2022-07-15T08:01:08;101069.08;;;22.35;38.93
57885;BME280;43703;51.060;-0.086;2022-07-15T08:03:34;101071.15;;;22.23;34.30
57885;BME280;43703;51.060;-0.086;2022-07-15T08:05:56;101072.94;;;22.28;39.26
57885;BME280;43703;51.060;-0.086;2022-07-15T08:08:26;101074.19;;;22.62;39.87
57885;BME280;43703;51.060;-0.086;2022-07-15T08:10:50;101075.13;;;21.33;37.34
57885;BME280;43703;51.060;-0.086;2022-07-15T08:13:13;101080.45;;;22.64;39.49
57885;BME280;43703;51.060;-0.086;2022-07-15T08:15:38;101083.76;;;21.87;38.91
57885;BME280;43703;51.060;-0.086;2022-07-15T08:18:07;101078.90;;;23.42;36.80
57885;BME280;43703;51.060;-0.086;2022-07-15T08:20:30;101077.91;;;22.56;37.15
57885;BME280;43703;51.060;-0.086;2022-07-15T08:22:56;101081.16;;;22.38;38.48
57885;BME280;43703;51.060;-0.086;2022-07-15T08:25:22;101075.79;;;22.32;36.53
57885;BME280;43703;51.060;-0.086;2022-07-15T08:27:50;101071.80;;;23.83;33.64
57885;BME280;43703;51.060;-0.086;2022-07-15T08:30:18;101074.97;;;24.22;33.93
57885;BME280;43703;51.060;-0.086;2022-07-15T08:32:44;101075.54;;;24.93;34.62
57885;BME280;43703;51.060;-0.086;2022-07-15T08:35:07;101076.69;;;26.79;32.07
57885;BME280;43703;51.060;-0.086;2022-07-15T08:37:31;101078.28;;;27.10;32.13
57885;BME280;43703;51.060;-0.086;2022-07-15T08:39:57;101071.37;;;27.74;32.04
57885;BME280;43703;51.060;-0.086;2022-07-15T08:42:24;101070.51;;;25.15;31.80
57885;BME280;43703;51.060;-0.086;2022-07-15T08:44:49;101065.45;;;23.95;34.12
57885;BME280;43703;51.060;-0.086;2022-07-15T08:47:19;101063.91;;;23.99;35.26
57885;BME280;43703;51.060;-0.086;2022-07-15T08:49:42;101064.65;;;24.51;32.56
57885;BME280;43703;51.060;-0.086;2022-07-15T08:52:08;101061.25;;;24.60;36.30
57885;BME280;43703;51.060;-0.086;2022-07-15T08:54:37;101054.60;;;23.32;36.53
57885;BME280;43703;51.060;-0.086;2022-07-15T08:56:59;101053.61;;;24.28;33.74
57885;BME280;43703;51.060;-0.086;2022-07-15T08:59:26;101053.81;;;25.24;34.78
57885;BME280;43703;51.060;-0.086;2022-07-15T09:01:51;101047.25;;;26.82;32.14
57885;BME280;43703;51.060;-0.086;2022-07-15T09:04:17;101046.98;;;26.40;28.62
57885;BME280;43703;51.060;-0.086;2022-07-15T09:06:44;101048.42;;;26.24;33.49
57885;BME280;43703;51.060;-0.086;2022-07-15T09:11:37;101041.54;;;26.29;31.63
57885;BME280;43703;51.060;-0.086;2022-07-15T09:13:59;101042.95;;;26.78;32.63
57885;BME280;43703;51.060;-0.086;2022-07-15T09:16:25;101043.57;;;27.81;30.81
57885;BME280;43703;51.060;-0.086;2022-07-15T09:18:55;101041.93;;;28.05;27.88
57885;BME280;43703;51.060;-0.086;2022-07-15T09:21:20;101039.84;;;28.48;29.90
57885;BME280;43703;51.060;-0.086;2022-07-15T09:23:44;101039.26;;;29.83;27.44
57885;BME280;43703;51.060;-0.086;2022-07-15T09:28:38;101037.18;;;30.01;27.88
57885;BME280;43703;51.060;-0.086;2022-07-15T09:31:05;101029.71;;;27.90;25.91
57885;BME280;43703;51.060;-0.086;2022-07-15T09:33:28;101029.00;;;29.15;27.95
57885;BME280;43703;51.060;-0.086;2022-07-15T09:36:02;101031.63;;;31.33;24.12
57885;BME280;43703;51.060;-0.086;2022-07-15T09:38:23;101029.54;;;30.61;25.95
57885;BME280;43703;51.060;-0.086;2022-07-15T09:40:48;101032.60;;;29.32;25.39
57885;BME280;43703;51.060;-0.086;2022-07-15T09:43:14;101028.55;;;31.29;23.33
57885;BME280;43703;51.060;-0.086;2022-07-15T09:45:35;101024.68;;;30.70;25.38
57885;BME280;43703;51.060;-0.086;2022-07-15T09:48:05;101022.99;;;31.24;23.45
57885;BME280;43703;51.060;-0.086;2022-07-15T09:50:34;101019.24;;;31.86;23.34
57885;BME280;43703;51.060;-0.086;2022-07-15T09:52:53;101017.72;;;31.34;21.80
57885;BME280;43703;51.060;-0.086;2022-07-15T09:55:18;101022.95;;;30.28;23.01
57885;BME280;43703;51.060;-0.086;2022-07-15T09:57:43;101016.13;;;30.66;18.73
57885;BME280;43703;51.060;-0.086;2022-07-15T10:00:14;101013.35;;;32.52;20.84
57885;BME280;43703;51.060;-0.086;2022-07-15T10:02:38;101010.68;;;31.88;22.82
57885;BME280;43703;51.060;-0.086;2022-07-15T10:04:59;101006.74;;;33.56;19.00
57885;BME280;43703;51.060;-0.086;2022-07-15T10:07:24;101006.95;;;33.88;18.26
57885;BME280;43703;51.060;-0.086;2022-07-15T10:09:53;101008.59;;;33.19;20.34
57885;BME280;43703;51.060;-0.086;2022-07-15T10:12:21;101008.24;;;31.18;20.47
57885;BME280;43703;51.060;-0.086;2022-07-15T10:14:56;101009.66;;;29.71;21.60
57885;BME280;43703;51.060;-0.086;2022-07-15T10:22:03;101008.95;;;29.89;22.21
57885;BME280;43703;51.060;-0.086;2022-07-15T10:24:37;101007.16;;;32.14;19.00
57885;BME280;43703;51.060;-0.086;2022-07-15T10:26:59;101011.62;;;33.30;19.67
57885;BME280;43703;51.060;-0.086;2022-07-15T10:29:13;101008.46;;;33.36;19.33
57885;BME280;43703;51.060;-0.086;2022-07-15T10:31:39;101006.15;;;32.88;20.18
57885;BME280;43703;51.060;-0.086;2022-07-15T10:36:39;101002.76;;;32.69;21.50
57885;BME280;43703;51.060;-0.086;2022-07-15T10:39:00;101001.82;;;32.31;21.29
57885;BME280;43703;51.060;-0.086;2022-07-15T10:41:18;101001.11;;;32.04;19.54
57885;BME280;43703;51.060;-0.086;2022-07-15T10:43:44;100999.72;;;29.18;22.88
57885;BME280;43703;51.060;-0.086;2022-07-15T10:46:05;100999.03;;;28.33;24.64
57885;BME280;43703;51.060;-0.086;2022-07-15T10:48:34;101004.27;;;30.10;24.67
57885;BME280;43703;51.060;-0.086;2022-07-15T10:50:58;101004.25;;;31.39;22.17
57885;BME280;43703;51.060;-0.086;2022-07-15T10:53:25;100997.22;;;32.54;18.72
57885;BME280;43703;51.060;-0.086;2022-07-15T10:55:45;100999.04;;;33.71;16.94
57885;BME280;43703;51.060;-0.086;2022-07-15T10:58:12;100998.72;;;34.75;17.17
57885;BME280;43703;51.060;-0.086;2022-07-15T11:00:39;101001.29;;;33.49;20.15
57885;BME280;43703;51.060;-0.086;2022-07-15T11:03:06;100995.28;;;32.25;18.53
57885;BME280;43703;51.060;-0.086;2022-07-15T11:05:24;100991.90;;;33.13;22.35
57885;BME280;43703;51.060;-0.086;2022-07-15T11:07:54;100987.39;;;30.17;20.93
57885;BME280;43703;51.060;-0.086;2022-07-15T11:10:21;100990.13;;;29.52;22.81
57885;BME280;43703;51.060;-0.086;2022-07-15T11:15:05;100989.41;;;29.54;21.07
57885;BME280;43703;51.060;-0.086;2022-07-15T11:17:39;100985.87;;;30.28;23.32
57885;BME280;43703;51.060;-0.086;2022-07-15T11:20:01;100975.50;;;31.95;22.08
57885;BME280;43703;51.060;-0.086;2022-07-15T11:22:26;100973.80;;;32.81;17.66
57885;BME280;43703;51.060;-0.086;2022-07-15T11:24:47;100974.15;;;33.99;19.12
57885;BME280;43703;51.060;-0.086;2022-07-15T11:27:14;100970.21;;;33.00;16.89
57885;BME280;43703;51.060;-0.086;2022-07-15T11:29:43;100968.57;;;33.60;19.68
57885;BME280;43703;51.060;-0.086;2022-07-15T11:32:04;100966.13;;;32.84;17.15
57885;BME280;43703;51.060;-0.086;2022-07-15T11:34:36;100966.31;;;31.57;18.19
57885;BME280;43703;51.060;-0.086;2022-07-15T11:36:58;100963.73;;;33.10;20.41
57885;BME280;43703;51.060;-0.086;2022-07-15T11:39:27;100957.81;;;31.97;17.34
57885;BME280;43703;51.060;-0.086;2022-07-15T11:41:51;100955.73;;;29.73;18.21
57885;BME280;43703;51.060;-0.086;2022-07-15T11:44:07;100957.90;;;28.86;22.89
57885;BME280;43703;51.060;-0.086;2022-07-15T11:46:42;100958.53;;;28.51;20.57
57885;BME280;43703;51.060;-0.086;2022-07-15T11:48:59;100952.58;;;30.06;23.55
57885;BME280;43703;51.060;-0.086;2022-07-15T11:51:25;100950.91;;;31.70;19.20
57885;BME280;43703;51.060;-0.086;2022-07-15T11:53:50;100956.76;;;30.92;20.96
57885;BME280;43703;51.060;-0.086;2022-07-15T11:56:15;100953.18;;;29.77;19.70
57885;BME280;43703;51.060;-0.086;2022-07-15T11:58:38;100947.24;;;31.43;19.62
57885;BME280;43703;51.060;-0.086;2022-07-15T12:01:09;100942.79;;;31.30;21.39
57885;BME280;43703;51.060;-0.086;2022-07-15T12:03:32;100944.53;;;31.27;22.01
57885;BME280;43703;51.060;-0.086;2022-07-15T12:06:00;100940.61;;;30.99;20.38
57885;BME280;43703;51.060;-0.086;2022-07-15T12:08:16;100939.11;;;30.24;19.58
57885;BME280;43703;51.060;-0.086;2022-07-15T12:10:40;100938.97;;;28.40;23.24
57885;BME280;43703;51.060;-0.086;2022-07-15T12:13:07;100938.22;;;27.29;21.24
57885;BME280;43703;51.060;-0.086;2022-07-15T12:15:30;100939.81;;;28.93;19.80
57885;BME280;43703;51.060;-0.086;2022-07-15T12:18:00;100938.26;;;28.33;20.94
57885;BME280;43703;51.060;-0.086;2022-07-15T12:20:23;100937.00;;;27.54;20.81
57885;BME280;43703;51.060;-0.086;2022-07-15T12:25:18;100930.48;;;27.16;22.83
57885;BME280;43703;51.060;-0.086;2022-07-15T12:27:37;100926.77;;;27.47;23.47
57885;BME280;43703;51.060;-0.086;2022-07-15T12:30:03;100927.06;;;26.38;21.76
57885;BME280;43703;51.060;-0.086;2022-07-15T12:32:28;100930.55;;;25.56;22.73
57885;BME280;43703;51.060;-0.086;2022-07-15T12:34:53;100929.09;;;26.28;24.04
57885;BME280;43703;51.060;-0.086;2022-07-15T12:37:22;100930.17;;;25.27;24.00
57885;BME280;43703;51.060;-0.086;2022-07-15T12:39:53;100930.73;;;25.54;24.04
57885;BME280;43703;51.060;-0.086;2022-07-15T12:42:06;100929.79;;;26.40;24.10
57885;BME280;43703;51.060;-0.086;2022-07-15T12:44:32;100922.11;;;25.39;22.70
57885;BME280;43703;51.060;-0.086;2022-07-15T12:46:59;100927.96;;;25.04;23.50